sensor_id;sensor_type;location;lat;lon;timestamp;P1;P2;P0
40947;PMS5003;49382;-25.924;28.194;2023-05-01T00:00:23;10;10;
40947;PMS5003;49382;-25.924;28.194;2023-05-01T00:02:49;11;11;
40947;PMS5003;49382;-25.924;28.194;2023-05-01T00:05:15;10;10;
40947;PMS5003;49382;-25.924;28.194;2023-05-01T00:07:41;10;10;
40947;PMS5003;49382;-25.924;28.194;2023-05-01T00:10:07;10;10;
40947;PMS5003;49382;-25.924;28.194;2023-05-01T00:12:33;12;11;
40947;PMS5003;49382;-25.924;28.194;2023-05-01T00:14:59;10;10;
40947;PMS5003;49382;-25.924;28.194;2023-05-01T00:17:24;9;9;
40947;PMS5003;49382;-25.924;28.194;2023-05-01T00:19:50;9;9;
40947;PMS5003;49382;-25.924;28.194;2023-05-01T00:22:14;9;9;
40947;PMS5003;49382;-25.924;28.194;2023-05-01T00:24:40;9;9;
40947;PMS5003;49382;-25.924;28.194;2023-05-01T00:27:06;12;12;
40947;PMS5003;49382;-25.924;28.194;2023-05-01T00:29:31;10;10;
40947;PMS5003;49382;-25.924;28.194;2023-05-01T00:31:57;10;10;
40947;PMS5003;49382;-25.924;28.194;2023-05-01T00:34:23;8;8;
40947;PMS5003;49382;-25.924;28.194;2023-05-01T00:36:49;10;10;
40947;PMS5003;49382;-25.924;28.194;2023-05-01T00:39:14;11;10;
40947;PMS5003;49382;-25.924;28.194;2023-05-01T00:41:40;9;9;
40947;PMS5003;49382;-25.924;28.194;2023-05-01T00:44:06;11;11;
40947;PMS5003;49382;-25.924;28.194;2023-05-01T00:46:32;11;10;
40947;PMS5003;49382;-25.924;28.194;2023-05-01T00:48:59;9;9;
40947;PMS5003;49382;-25.924;28.194;2023-05-01T00:51:23;8;8;
40947;PMS5003;49382;-25.924;28.194;2023-05-01T00:53:50;10;10;
40947;PMS5003;49382;-25.924;28.194;2023-05-01T00:56:14;9;9;
40947;PMS5003;49382;-25.924;28.194;2023-05-01T00:58:40;10;10;
40947;PMS5003;49382;-25.924;28.194;2023-05-01T01:01:06;10;9;
40947;PMS5003;49382;-25.924;28.194;2023-05-01T01:03:32;8;8;
40947;PMS5003;49382;-25.924;28.194;2023-05-01T01:06:01;10;10;
40947;PMS5003;49382;-25.924;28.194;2023-05-01T01:08:25;8;8;
40947;PMS5003;49382;-25.924;28.194;2023-05-01T01:10:51;9;9;
40947;PMS5003;49382;-25.924;28.194;2023-05-01T01:13:16;9;9;
40947;PMS5003;49382;-25.924;28.194;2023-05-01T01:15:43;8;8;
40947;PMS5003;49382;-25.924;28.194;2023-05-01T01:18:07;8;8;
40947;PMS5003;49382;-25.924;28.194;2023-05-01T01:20:31;10;9;
40947;PMS5003;49382;-25.924;28.194;2023-05-01T01:23:00;9;9;
40947;PMS5003;49382;-25.924;28.194;2023-05-01T01:30:20;11;10;
40947;PMS5003;49382;-25.924;28.194;2023-05-01T01:35:05;12;12;
40947;PMS5003;49382;-25.924;28.194;2023-05-01T01:37:31;9;9;
40947;PMS5003;49382;-25.924;28.194;2023-05-01T01:39:56;10;10;
40947;PMS5003;49382;-25.924;28.194;2023-05-01T01:42:19;10;10;
40947;PMS5003;49382;-25.924;28.194;2023-05-01T01:44:46;9;9;
40947;PMS5003;49382;-25.924;28.194;2023-05-01T01:47:11;9;9;
40947;PMS5003;49382;-25.924;28.194;2023-05-01T01:49:37;8;8;
40947;PMS5003;49382;-25.924;28.194;2023-05-01T01:52:02;10;10;
40947;PMS5003;49382;-25.924;28.194;2023-05-01T01:54:28;11;10;
40947;PMS5003;49382;-25.924;28.194;2023-05-01T01:56:52;11;10;
40947;PMS5003;49382;-25.924;28.194;2023-05-01T01:59:19;10;10;
40947;PMS5003;49382;-25.924;28.194;2023-05-01T02:01:43;10;10;
40947;PMS5003;49382;-25.924;28.194;2023-05-01T02:04:08;12;11;
40947;PMS5003;49382;-25.924;28.194;2023-05-01T02:06:33;9;9;
40947;PMS5003;49382;-25.924;28.194;2023-05-01T02:08:58;9;9;
40947;PMS5003;49382;-25.924;28.194;2023-05-01T02:11:24;10;8;
40947;PMS5003;49382;-25.924;28.194;2023-05-01T02:13:50;10;10;
40947;PMS5003;49382;-25.924;28.194;2023-05-01T02:16:15;10;10;
40947;PMS5003;49382;-25.924;28.194;2023-05-01T02:18:40;10;9;
40947;PMS5003;49382;-25.924;28.194;2023-05-01T02:21:05;10;9;
40947;PMS5003;49382;-25.924;28.194;2023-05-01T02:23:30;9;9;
40947;PMS5003;49382;-25.924;28.194;2023-05-01T02:25:56;9;9;
40947;PMS5003;49382;-25.924;28.194;2023-05-01T02:28:22;8;8;
40947;PMS5003;49382;-25.924;28.194;2023-05-01T02:30:48;10;10;
40947;PMS5003;49382;-25.924;28.194;2023-05-01T02:33:13;10;10;
40947;PMS5003;49382;-25.924;28.194;2023-05-01T02:35:38;11;11;
40947;PMS5003;49382;-25.924;28.194;2023-05-01T02:38:04;8;8;
40947;PMS5003;49382;-25.924;28.194;2023-05-01T02:40:29;10;10;
40947;PMS5003;49382;-25.924;28.194;2023-05-01T02:42:54;9;9;
40947;PMS5003;49382;-25.924;28.194;2023-05-01T02:45:19;9;9;
40947;PMS5003;49382;-25.924;28.194;2023-05-01T02:47:44;10;10;
40947;PMS5003;49382;-25.924;28.194;2023-05-01T02:50:09;11;11;
40947;PMS5003;49382;-25.924;28.194;2023-05-01T02:52:34;12;12;
40947;PMS5003;49382;-25.924;28.194;2023-05-01T02:54:59;9;9;
40947;PMS5003;49382;-25.924;28.194;2023-05-01T02:57:24;12;12;
40947;PMS5003;49382;-25.924;28.194;2023-05-01T02:59:49;11;11;
40947;PMS5003;49382;-25.924;28.194;2023-05-01T03:02:14;10;10;
40947;PMS5003;49382;-25.924;28.194;2023-05-01T03:04:39;11;11;
40947;PMS5003;49382;-25.924;28.194;2023-05-01T03:07:04;12;12;
40947;PMS5003;49382;-25.924;28.194;2023-05-01T03:09:29;11;11;
40947;PMS5003;49382;-25.924;28.194;2023-05-01T03:11:54;10;9;
40947;PMS5003;49382;-25.924;28.194;2023-05-01T03:14:19;13;12;
40947;PMS5003;49382;-25.924;28.194;2023-05-01T03:16:44;13;13;
40947;PMS5003;49382;-25.924;28.194;2023-05-01T03:19:10;12;12;
40947;PMS5003;49382;-25.924;28.194;2023-05-01T03:21:35;11;11;
40947;PMS5003;49382;-25.924;28.194;2023-05-01T03:23:59;12;12;
40947;PMS5003;49382;-25.924;28.194;2023-05-01T03:26:25;11;11;
40947;PMS5003;49382;-25.924;28.194;2023-05-01T03:28:50;11;11;
40947;PMS5003;49382;-25.924;28.194;2023-05-01T03:31:15;12;11;
40947;PMS5003;49382;-25.924;28.194;2023-05-01T03:33:40;11;11;
40947;PMS5003;49382;-25.924;28.194;2023-05-01T03:36:06;14;12;
40947;PMS5003;49382;-25.924;28.194;2023-05-01T03:38:32;11;11;
40947;PMS5003;49382;-25.924;28.194;2023-05-01T03:40:56;12;12;
40947;PMS5003;49382;-25.924;28.194;2023-05-01T03:43:22;11;11;
40947;PMS5003;49382;-25.924;28.194;2023-05-01T03:45:46;12;12;
40947;PMS5003;49382;-25.924;28.194;2023-05-01T03:48:11;10;10;
40947;PMS5003;49382;-25.924;28.194;2023-05-01T03:50:36;10;10;
40947;PMS5003;49382;-25.924;28.194;2023-05-01T03:53:01;10;9;
40947;PMS5003;49382;-25.924;28.194;2023-05-01T03:55:27;12;12;
40947;PMS5003;49382;-25.924;28.194;2023-05-01T03:57:53;10;10;
40947;PMS5003;49382;-25.924;28.194;2023-05-01T04:00:18;11;10;
40947;PMS5003;49382;-25.924;28.194;2023-05-01T04:02:43;9;9;
40947;PMS5003;49382;-25.924;28.194;2023-05-01T04:05:09;9;9;
40947;PMS5003;49382;-25.924;28.194;2023-05-01T04:07:35;10;10;
40947;PMS5003;49382;-25.924;28.194;2023-05-01T04:10:00;11;10;
40947;PMS5003;49382;-25.924;28.194;2023-05-01T04:12:25;12;11;
40947;PMS5003;49382;-25.924;28.194;2023-05-01T04:14:51;11;10;
40947;PMS5003;49382;-25.924;28.194;2023-05-01T04:17:17;11;11;
40947;PMS5003;49382;-25.924;28.194;2023-05-01T04:19:42;12;12;
40947;PMS5003;49382;-25.924;28.194;2023-05-01T04:22:08;12;12;
40947;PMS5003;49382;-25.924;28.194;2023-05-01T04:24:33;12;12;
40947;PMS5003;49382;-25.924;28.194;2023-05-01T04:26:58;14;14;
40947;PMS5003;49382;-25.924;28.194;2023-05-01T04:29:23;12;12;
40947;PMS5003;49382;-25.924;28.194;2023-05-01T04:31:48;14;11;
40947;PMS5003;49382;-25.924;28.194;2023-05-01T04:34:13;11;11;
40947;PMS5003;49382;-25.924;28.194;2023-05-01T04:36:38;10;10;
40947;PMS5003;49382;-25.924;28.194;2023-05-01T04:39:04;12;12;
40947;PMS5003;49382;-25.924;28.194;2023-05-01T04:41:30;12;12;
40947;PMS5003;49382;-25.924;28.194;2023-05-01T04:43:55;13;13;
40947;PMS5003;49382;-25.924;28.194;2023-05-01T04:46:20;12;12;
40947;PMS5003;49382;-25.924;28.194;2023-05-01T04:48:45;15;14;
40947;PMS5003;49382;-25.924;28.194;2023-05-01T04:51:10;10;10;
40947;PMS5003;49382;-25.924;28.194;2023-05-01T04:53:36;13;11;
40947;PMS5003;49382;-25.924;28.194;2023-05-01T04:56:01;10;10;
40947;PMS5003;49382;-25.924;28.194;2023-05-01T04:58:26;13;12;
40947;PMS5003;49382;-25.924;28.194;2023-05-01T05:00:52;11;11;
40947;PMS5003;49382;-25.924;28.194;2023-05-01T05:03:17;11;11;
40947;PMS5003;49382;-25.924;28.194;2023-05-01T05:05:42;12;12;
40947;PMS5003;49382;-25.924;28.194;2023-05-01T05:08:07;11;10;
40947;PMS5003;49382;-25.924;28.194;2023-05-01T05:10:32;14;13;
40947;PMS5003;49382;-25.924;28.194;2023-05-01T05:12:57;13;13;
40947;PMS5003;49382;-25.924;28.194;2023-05-01T05:15:22;13;13;
40947;PMS5003;49382;-25.924;28.194;2023-05-01T05:17:47;11;11;
40947;PMS5003;49382;-25.924;28.194;2023-05-01T05:20:12;13;13;
40947;PMS5003;49382;-25.924;28.194;2023-05-01T05:22:37;14;14;
40947;PMS5003;49382;-25.924;28.194;2023-05-01T05:25:02;11;11;
40947;PMS5003;49382;-25.924;28.194;2023-05-01T05:27:27;13;13;
40947;PMS5003;49382;-25.924;28.194;2023-05-01T05:29:52;16;14;
40947;PMS5003;49382;-25.924;28.194;2023-05-01T05:32:18;13;13;
40947;PMS5003;49382;-25.924;28.194;2023-05-01T05:34:43;12;11;
40947;PMS5003;49382;-25.924;28.194;2023-05-01T05:37:08;14;14;
40947;PMS5003;49382;-25.924;28.194;2023-05-01T05:39:33;15;14;
40947;PMS5003;49382;-25.924;28.194;2023-05-01T05:41:58;12;12;
40947;PMS5003;49382;-25.924;28.194;2023-05-01T05:44:23;14;14;
40947;PMS5003;49382;-25.924;28.194;2023-05-01T05:46:48;13;13;
40947;PMS5003;49382;-25.924;28.194;2023-05-01T05:49:13;14;14;
40947;PMS5003;49382;-25.924;28.194;2023-05-01T05:51:38;13;12;
40947;PMS5003;49382;-25.924;28.194;2023-05-01T05:54:03;15;15;
40947;PMS5003;49382;-25.924;28.194;2023-05-01T05:56:28;13;13;
40947;PMS5003;49382;-25.924;28.194;2023-05-01T05:58:53;15;14;
40947;PMS5003;49382;-25.924;28.194;2023-05-01T06:01:18;12;12;
40947;PMS5003;49382;-25.924;28.194;2023-05-01T06:03:44;12;11;
40947;PMS5003;49382;-25.924;28.194;2023-05-01T06:06:10;16;14;
40947;PMS5003;49382;-25.924;28.194;2023-05-01T06:08:36;12;12;
40947;PMS5003;49382;-25.924;28.194;2023-05-01T06:11:02;14;13;
40947;PMS5003;49382;-25.924;28.194;2023-05-01T06:13:27;11;11;
40947;PMS5003;49382;-25.924;28.194;2023-05-01T06:15:52;13;12;
40947;PMS5003;49382;-25.924;28.194;2023-05-01T06:18:17;16;16;
40947;PMS5003;49382;-25.924;28.194;2023-05-01T06:20:42;14;13;
40947;PMS5003;49382;-25.924;28.194;2023-05-01T06:23:07;13;13;
40947;PMS5003;49382;-25.924;28.194;2023-05-01T06:25:32;13;13;
40947;PMS5003;49382;-25.924;28.194;2023-05-01T06:27:57;14;14;
40947;PMS5003;49382;-25.924;28.194;2023-05-01T06:30:22;13;13;
40947;PMS5003;49382;-25.924;28.194;2023-05-01T06:32:47;11;11;
40947;PMS5003;49382;-25.924;28.194;2023-05-01T06:35:13;14;13;
40947;PMS5003;49382;-25.924;28.194;2023-05-01T06:37:38;14;13;
40947;PMS5003;49382;-25.924;28.194;2023-05-01T06:40:03;14;13;
40947;PMS5003;49382;-25.924;28.194;2023-05-01T06:42:28;11;11;
40947;PMS5003;49382;-25.924;28.194;2023-05-01T06:44:53;15;15;
40947;PMS5003;49382;-25.924;28.194;2023-05-01T06:47:19;13;13;
40947;PMS5003;49382;-25.924;28.194;2023-05-01T06:49:43;13;13;
40947;PMS5003;49382;-25.924;28.194;2023-05-01T06:52:08;12;12;
40947;PMS5003;49382;-25.924;28.194;2023-05-01T06:54:33;11;11;
40947;PMS5003;49382;-25.924;28.194;2023-05-01T06:56:59;13;13;
40947;PMS5003;49382;-25.924;28.194;2023-05-01T06:59:24;13;12;
40947;PMS5003;49382;-25.924;28.194;2023-05-01T07:01:50;12;12;
40947;PMS5003;49382;-25.924;28.194;2023-05-01T07:04:16;14;14;
40947;PMS5003;49382;-25.924;28.194;2023-05-01T07:06:42;13;12;
40947;PMS5003;49382;-25.924;28.194;2023-05-01T07:09:07;16;15;
40947;PMS5003;49382;-25.924;28.194;2023-05-01T07:11:32;12;12;
40947;PMS5003;49382;-25.924;28.194;2023-05-01T07:13:57;11;11;
40947;PMS5003;49382;-25.924;28.194;2023-05-01T07:16:22;12;12;
40947;PMS5003;49382;-25.924;28.194;2023-05-01T07:18:47;14;12;
40947;PMS5003;49382;-25.924;28.194;2023-05-01T07:21:13;11;11;
40947;PMS5003;49382;-25.924;28.194;2023-05-01T07:23:37;10;10;
40947;PMS5003;49382;-25.924;28.194;2023-05-01T07:26:03;13;12;
40947;PMS5003;49382;-25.924;28.194;2023-05-01T07:28:27;11;10;
40947;PMS5003;49382;-25.924;28.194;2023-05-01T07:30:53;10;10;
40947;PMS5003;49382;-25.924;28.194;2023-05-01T07:33:19;11;11;
40947;PMS5003;49382;-25.924;28.194;2023-05-01T07:35:45;12;12;
40947;PMS5003;49382;-25.924;28.194;2023-05-01T07:38:10;11;11;
40947;PMS5003;49382;-25.924;28.194;2023-05-01T07:40:35;11;11;
40947;PMS5003;49382;-25.924;28.194;2023-05-01T07:43:01;11;11;
40947;PMS5003;49382;-25.924;28.194;2023-05-01T07:45:27;11;10;
40947;PMS5003;49382;-25.924;28.194;2023-05-01T07:47:52;11;11;
40947;PMS5003;49382;-25.924;28.194;2023-05-01T07:50:18;13;13;
40947;PMS5003;49382;-25.924;28.194;2023-05-01T07:52:44;10;10;
40947;PMS5003;49382;-25.924;28.194;2023-05-01T07:55:10;13;12;
40947;PMS5003;49382;-25.924;28.194;2023-05-01T07:57:36;13;13;
40947;PMS5003;49382;-25.924;28.194;2023-05-01T08:00:01;13;12;
40947;PMS5003;49382;-25.924;28.194;2023-05-01T08:02:27;12;12;
40947;PMS5003;49382;-25.924;28.194;2023-05-01T08:04:53;12;12;
40947;PMS5003;49382;-25.924;28.194;2023-05-01T08:07:19;9;9;
40947;PMS5003;49382;-25.924;28.194;2023-05-01T08:09:45;11;11;
40947;PMS5003;49382;-25.924;28.194;2023-05-01T08:12:10;11;11;
40947;PMS5003;49382;-25.924;28.194;2023-05-01T08:14:36;12;12;
40947;PMS5003;49382;-25.924;28.194;2023-05-01T08:17:02;14;14;
40947;PMS5003;49382;-25.924;28.194;2023-05-01T08:19:28;11;11;
40947;PMS5003;49382;-25.924;28.194;2023-05-01T08:21:54;12;12;
40947;PMS5003;49382;-25.924;28.194;2023-05-01T08:24:20;13;12;
40947;PMS5003;49382;-25.924;28.194;2023-05-01T08:26:46;11;11;
40947;PMS5003;49382;-25.924;28.194;2023-05-01T08:29:11;13;13;
40947;PMS5003;49382;-25.924;28.194;2023-05-01T08:31:37;12;11;
40947;PMS5003;49382;-25.924;28.194;2023-05-01T08:34:03;10;10;
40947;PMS5003;49382;-25.924;28.194;2023-05-01T08:36:29;11;11;
40947;PMS5003;49382;-25.924;28.194;2023-05-01T08:38:54;12;12;
40947;PMS5003;49382;-25.924;28.194;2023-05-01T08:41:21;12;11;
40947;PMS5003;49382;-25.924;28.194;2023-05-01T08:43:46;14;13;
40947;PMS5003;49382;-25.924;28.194;2023-05-01T08:46:12;13;13;
40947;PMS5003;49382;-25.924;28.194;2023-05-01T08:48:38;12;12;
40947;PMS5003;49382;-25.924;28.194;2023-05-01T08:51:04;12;12;
40947;PMS5003;49382;-25.924;28.194;2023-05-01T08:53:29;15;14;
40947;PMS5003;49382;-25.924;28.194;2023-05-01T08:55:55;12;12;
40947;PMS5003;49382;-25.924;28.194;2023-05-01T08:58:21;11;11;
40947;PMS5003;49382;-25.924;28.194;2023-05-01T09:00:47;13;13;
40947;PMS5003;49382;-25.924;28.194;2023-05-01T09:03:12;15;14;
40947;PMS5003;49382;-25.924;28.194;2023-05-01T09:05:38;12;12;
40947;PMS5003;49382;-25.924;28.194;2023-05-01T09:08:04;12;12;
40947;PMS5003;49382;-25.924;28.194;2023-05-01T09:10:30;13;13;
40947;PMS5003;49382;-25.924;28.194;2023-05-01T09:12:56;13;13;
40947;PMS5003;49382;-25.924;28.194;2023-05-01T09:15:22;15;15;
40947;PMS5003;49382;-25.924;28.194;2023-05-01T09:17:47;13;13;
40947;PMS5003;49382;-25.924;28.194;2023-05-01T09:20:13;13;12;
40947;PMS5003;49382;-25.924;28.194;2023-05-01T09:22:39;13;12;
40947;PMS5003;49382;-25.924;28.194;2023-05-01T09:25:05;13;13;
40947;PMS5003;49382;-25.924;28.194;2023-05-01T09:27:32;16;15;
40947;PMS5003;49382;-25.924;28.194;2023-05-01T09:29:56;13;13;
40947;PMS5003;49382;-25.924;28.194;2023-05-01T09:32:22;14;14;
40947;PMS5003;49382;-25.924;28.194;2023-05-01T09:34:48;14;14;
40947;PMS5003;49382;-25.924;28.194;2023-05-01T09:37:23;17;17;
40947;PMS5003;49382;-25.924;28.194;2023-05-01T09:39:39;16;16;
40947;PMS5003;49382;-25.924;28.194;2023-05-01T09:42:05;18;18;
40947;PMS5003;49382;-25.924;28.194;2023-05-01T09:44:31;18;18;
40947;PMS5003;49382;-25.924;28.194;2023-05-01T09:46:57;16;16;
40947;PMS5003;49382;-25.924;28.194;2023-05-01T09:51:49;15;15;
40947;PMS5003;49382;-25.924;28.194;2023-05-01T09:54:16;15;15;
40947;PMS5003;49382;-25.924;28.194;2023-05-01T09:56:45;15;15;
40947;PMS5003;49382;-25.924;28.194;2023-05-01T10:03:58;15;15;
40947;PMS5003;49382;-25.924;28.194;2023-05-01T10:06:27;19;19;
40947;PMS5003;49382;-25.924;28.194;2023-05-01T10:08:49;19;18;
40947;PMS5003;49382;-25.924;28.194;2023-05-01T10:11:15;17;17;
40947;PMS5003;49382;-25.924;28.194;2023-05-01T10:13:41;17;17;
40947;PMS5003;49382;-25.924;28.194;2023-05-01T10:16:08;17;17;
40947;PMS5003;49382;-25.924;28.194;2023-05-01T10:18:33;18;18;
40947;PMS5003;49382;-25.924;28.194;2023-05-01T10:20:59;17;16;
40947;PMS5003;49382;-25.924;28.194;2023-05-01T10:23:24;16;16;
40947;PMS5003;49382;-25.924;28.194;2023-05-01T10:25:51;16;16;
40947;PMS5003;49382;-25.924;28.194;2023-05-01T10:28:16;17;16;
40947;PMS5003;49382;-25.924;28.194;2023-05-01T10:30:42;18;17;
40947;PMS5003;49382;-25.924;28.194;2023-05-01T10:33:08;15;15;
40947;PMS5003;49382;-25.924;28.194;2023-05-01T10:35:35;19;18;
40947;PMS5003;49382;-25.924;28.194;2023-05-01T10:37:59;15;15;
40947;PMS5003;49382;-25.924;28.194;2023-05-01T10:47:45;15;14;
40947;PMS5003;49382;-25.924;28.194;2023-05-01T10:50:08;16;16;
40947;PMS5003;49382;-25.924;28.194;2023-05-01T11:04:46;17;17;
40947;PMS5003;49382;-25.924;28.194;2023-05-01T11:09:35;16;15;
40947;PMS5003;49382;-25.924;28.194;2023-05-01T11:12:00;17;17;
40947;PMS5003;49382;-25.924;28.194;2023-05-01T11:14:26;15;15;
40947;PMS5003;49382;-25.924;28.194;2023-05-01T11:16:52;17;17;
40947;PMS5003;49382;-25.924;28.194;2023-05-01T11:21:43;18;17;
40947;PMS5003;49382;-25.924;28.194;2023-05-01T11:24:09;16;16;
40947;PMS5003;49382;-25.924;28.194;2023-05-01T11:26:36;18;18;
40947;PMS5003;49382;-25.924;28.194;2023-05-01T11:29:00;23;23;
40947;PMS5003;49382;-25.924;28.194;2023-05-01T11:31:26;28;28;
40947;PMS5003;49382;-25.924;28.194;2023-05-01T11:33:51;22;22;
40947;PMS5003;49382;-25.924;28.194;2023-05-01T11:36:17;22;22;
40947;PMS5003;49382;-25.924;28.194;2023-05-01T11:41:09;23;23;
40947;PMS5003;49382;-25.924;28.194;2023-05-01T11:43:35;22;22;
40947;PMS5003;49382;-25.924;28.194;2023-05-01T11:46:00;23;22;
40947;PMS5003;49382;-25.924;28.194;2023-05-01T11:48:26;20;20;
40947;PMS5003;49382;-25.924;28.194;2023-05-01T11:50:52;25;22;
40947;PMS5003;49382;-25.924;28.194;2023-05-01T11:53:18;25;25;
40947;PMS5003;49382;-25.924;28.194;2023-05-01T11:55:44;23;23;
40947;PMS5003;49382;-25.924;28.194;2023-05-01T11:58:09;24;24;
40947;PMS5003;49382;-25.924;28.194;2023-05-01T12:00:35;26;26;
40947;PMS5003;49382;-25.924;28.194;2023-05-01T12:03:01;25;24;
40947;PMS5003;49382;-25.924;28.194;2023-05-01T12:05:27;25;24;
40947;PMS5003;49382;-25.924;28.194;2023-05-01T12:10:17;22;20;
40947;PMS5003;49382;-25.924;28.194;2023-05-01T12:12:43;25;24;
40947;PMS5003;49382;-25.924;28.194;2023-05-01T12:15:09;25;24;
40947;PMS5003;49382;-25.924;28.194;2023-05-01T12:17:35;21;21;
40947;PMS5003;49382;-25.924;28.194;2023-05-01T12:20:01;21;21;
40947;PMS5003;49382;-25.924;28.194;2023-05-01T12:22:26;25;24;
40947;PMS5003;49382;-25.924;28.194;2023-05-01T12:24:52;25;25;
40947;PMS5003;49382;-25.924;28.194;2023-05-01T12:27:18;28;28;
40947;PMS5003;49382;-25.924;28.194;2023-05-01T12:29:44;24;23;
40947;PMS5003;49382;-25.924;28.194;2023-05-01T12:32:09;21;21;
40947;PMS5003;49382;-25.924;28.194;2023-05-01T12:34:35;25;24;
40947;PMS5003;49382;-25.924;28.194;2023-05-01T12:37:00;23;23;
40947;PMS5003;49382;-25.924;28.194;2023-05-01T12:39:30;25;25;
40947;PMS5003;49382;-25.924;28.194;2023-05-01T12:41:51;20;20;
40947;PMS5003;49382;-25.924;28.194;2023-05-01T12:44:18;20;19;
40947;PMS5003;49382;-25.924;28.194;2023-05-01T12:46:43;19;19;
40947;PMS5003;49382;-25.924;28.194;2023-05-01T12:49:08;23;21;
40947;PMS5003;49382;-25.924;28.194;2023-05-01T12:51:34;21;21;
40947;PMS5003;49382;-25.924;28.194;2023-05-01T12:53:59;21;21;
40947;PMS5003;49382;-25.924;28.194;2023-05-01T12:56:25;19;19;
40947;PMS5003;49382;-25.924;28.194;2023-05-01T12:58:51;20;20;
40947;PMS5003;49382;-25.924;28.194;2023-05-01T13:03:42;20;20;
40947;PMS5003;49382;-25.924;28.194;2023-05-01T13:06:08;21;21;
40947;PMS5003;49382;-25.924;28.194;2023-05-01T13:08:35;22;22;
40947;PMS5003;49382;-25.924;28.194;2023-05-01T13:11:01;20;20;
40947;PMS5003;49382;-25.924;28.194;2023-05-01T13:13:27;22;22;
40947;PMS5003;49382;-25.924;28.194;2023-05-01T13:15:51;20;20;
40947;PMS5003;49382;-25.924;28.194;2023-05-01T13:18:17;22;22;
40947;PMS5003;49382;-25.924;28.194;2023-05-01T13:20:43;20;20;
40947;PMS5003;49382;-25.924;28.194;2023-05-01T13:23:10;19;19;
40947;PMS5003;49382;-25.924;28.194;2023-05-01T13:25:34;22;22;
40947;PMS5003;49382;-25.924;28.194;2023-05-01T13:28:00;22;22;
40947;PMS5003;49382;-25.924;28.194;2023-05-01T13:30:30;21;21;
40947;PMS5003;49382;-25.924;28.194;2023-05-01T13:32:52;22;22;
40947;PMS5003;49382;-25.924;28.194;2023-05-01T13:35:22;20;20;
40947;PMS5003;49382;-25.924;28.194;2023-05-01T13:37:44;23;22;
40947;PMS5003;49382;-25.924;28.194;2023-05-01T13:40:10;22;22;
40947;PMS5003;49382;-25.924;28.194;2023-05-01T13:42:35;25;24;
40947;PMS5003;49382;-25.924;28.194;2023-05-01T13:45:01;23;23;
40947;PMS5003;49382;-25.924;28.194;2023-05-01T13:47:27;21;21;
40947;PMS5003;49382;-25.924;28.194;2023-05-01T13:49:52;23;23;
40947;PMS5003;49382;-25.924;28.194;2023-05-01T13:52:18;24;24;
40947;PMS5003;49382;-25.924;28.194;2023-05-01T13:54:44;23;23;
40947;PMS5003;49382;-25.924;28.194;2023-05-01T13:57:09;25;25;
40947;PMS5003;49382;-25.924;28.194;2023-05-01T13:59:37;30;30;
40947;PMS5003;49382;-25.924;28.194;2023-05-01T14:02:01;25;25;
40947;PMS5003;49382;-25.924;28.194;2023-05-01T14:04:26;26;26;
40947;PMS5003;49382;-25.924;28.194;2023-05-01T14:06:52;38;38;
40947;PMS5003;49382;-25.924;28.194;2023-05-01T14:09:17;32;32;
40947;PMS5003;49382;-25.924;28.194;2023-05-01T14:11:45;29;28;
40947;PMS5003;49382;-25.924;28.194;2023-05-01T14:14:09;24;24;
40947;PMS5003;49382;-25.924;28.194;2023-05-01T14:16:34;23;22;
40947;PMS5003;49382;-25.924;28.194;2023-05-01T14:19:00;30;30;
40947;PMS5003;49382;-25.924;28.194;2023-05-01T14:21:25;25;25;
40947;PMS5003;49382;-25.924;28.194;2023-05-01T14:23:51;27;26;
40947;PMS5003;49382;-25.924;28.194;2023-05-01T14:26:17;25;25;
40947;PMS5003;49382;-25.924;28.194;2023-05-01T14:28:43;25;25;
40947;PMS5003;49382;-25.924;28.194;2023-05-01T14:31:08;29;29;
40947;PMS5003;49382;-25.924;28.194;2023-05-01T14:33:34;33;33;
40947;PMS5003;49382;-25.924;28.194;2023-05-01T14:35:59;36;36;
40947;PMS5003;49382;-25.924;28.194;2023-05-01T14:38:24;31;31;
40947;PMS5003;49382;-25.924;28.194;2023-05-01T14:40:49;30;30;
40947;PMS5003;49382;-25.924;28.194;2023-05-01T14:43:15;24;24;
40947;PMS5003;49382;-25.924;28.194;2023-05-01T14:45:42;29;28;
40947;PMS5003;49382;-25.924;28.194;2023-05-01T14:48:06;25;25;
40947;PMS5003;49382;-25.924;28.194;2023-05-01T14:50:31;24;23;
40947;PMS5003;49382;-25.924;28.194;2023-05-01T14:52:58;25;25;
40947;PMS5003;49382;-25.924;28.194;2023-05-01T14:55:24;27;27;
40947;PMS5003;49382;-25.924;28.194;2023-05-01T14:57:49;29;28;
40947;PMS5003;49382;-25.924;28.194;2023-05-01T15:00:15;23;23;
40947;PMS5003;49382;-25.924;28.194;2023-05-01T15:02:40;25;25;
40947;PMS5003;49382;-25.924;28.194;2023-05-01T15:05:06;24;24;
40947;PMS5003;49382;-25.924;28.194;2023-05-01T15:07:31;24;24;
40947;PMS5003;49382;-25.924;28.194;2023-05-01T15:09:57;29;28;
40947;PMS5003;49382;-25.924;28.194;2023-05-01T15:12:23;27;26;
40947;PMS5003;49382;-25.924;28.194;2023-05-01T15:14:49;26;26;
40947;PMS5003;49382;-25.924;28.194;2023-05-01T15:17:14;22;22;
40947;PMS5003;49382;-25.924;28.194;2023-05-01T15:19:40;26;25;
40947;PMS5003;49382;-25.924;28.194;2023-05-01T15:22:06;24;24;
40947;PMS5003;49382;-25.924;28.194;2023-05-01T15:24:32;26;26;
40947;PMS5003;49382;-25.924;28.194;2023-05-01T15:26:58;24;24;
40947;PMS5003;49382;-25.924;28.194;2023-05-01T15:29:23;28;28;
40947;PMS5003;49382;-25.924;28.194;2023-05-01T15:31:49;27;27;
40947;PMS5003;49382;-25.924;28.194;2023-05-01T15:34:13;27;27;
40947;PMS5003;49382;-25.924;28.194;2023-05-01T15:36:39;29;29;
40947;PMS5003;49382;-25.924;28.194;2023-05-01T15:39:04;27;27;
40947;PMS5003;49382;-25.924;28.194;2023-05-01T15:41:29;33;33;
40947;PMS5003;49382;-25.924;28.194;2023-05-01T15:43:54;25;25;
40947;PMS5003;49382;-25.924;28.194;2023-05-01T15:46:20;29;29;
40947;PMS5003;49382;-25.924;28.194;2023-05-01T15:48:46;27;27;
40947;PMS5003;49382;-25.924;28.194;2023-05-01T15:51:11;31;31;
40947;PMS5003;49382;-25.924;28.194;2023-05-01T15:53:36;30;30;
40947;PMS5003;49382;-25.924;28.194;2023-05-01T15:56:02;29;29;
40947;PMS5003;49382;-25.924;28.194;2023-05-01T15:58:27;28;28;
40947;PMS5003;49382;-25.924;28.194;2023-05-01T16:00:53;28;28;
40947;PMS5003;49382;-25.924;28.194;2023-05-01T16:03:19;27;27;
40947;PMS5003;49382;-25.924;28.194;2023-05-01T16:05:44;27;27;
40947;PMS5003;49382;-25.924;28.194;2023-05-01T16:08:10;27;27;
40947;PMS5003;49382;-25.924;28.194;2023-05-01T16:10:35;28;28;
40947;PMS5003;49382;-25.924;28.194;2023-05-01T16:13:01;30;30;
40947;PMS5003;49382;-25.924;28.194;2023-05-01T16:15:27;30;30;
40947;PMS5003;49382;-25.924;28.194;2023-05-01T16:17:52;31;30;
40947;PMS5003;49382;-25.924;28.194;2023-05-01T16:20:16;29;29;
40947;PMS5003;49382;-25.924;28.194;2023-05-01T16:22:42;31;31;